sensor_id;sensor_type;location;lat;lon;timestamp;pressure;altitude;pressure_sealevel;temperature;humidity
65384;BME280;51986;52.788;41.368;2023-06-14T00:02:19;99253.34;;;12.52;66.79
65384;BME280;51986;52.788;41.368;2023-06-14T00:04:46;99257.88;;;12.52;66.74
65384;BME280;51986;52.788;41.368;2023-06-14T00:07:13;99238.75;;;12.44;66.51
65384;BME280;51986;52.788;41.368;2023-06-14T00:09:40;99252.88;;;12.57;66.16
65384;BME280;51986;52.788;41.368;2023-06-14T00:12:08;99255.03;;;12.62;65.85
65384;BME280;51986;52.788;41.368;2023-06-14T00:14:35;99236.25;;;12.77;65.18
65384;BME280;51986;52.788;41.368;2023-06-14T00:17:02;99239.16;;;12.62;65.54
65384;BME280;51986;52.788;41.368;2023-06-14T00:19:30;99239.84;;;12.67;65.20
65384;BME280;51986;52.788;41.368;2023-06-14T00:21:56;99224.72;;;12.67;64.88
65384;BME280;51986;52.788;41.368;2023-06-14T00:24:23;99231.97;;;12.43;65.76
65384;BME280;51986;52.788;41.368;2023-06-14T00:26:51;99236.72;;;12.72;65.14
65384;BME280;51986;52.788;41.368;2023-06-14T00:29:18;99227.03;;;12.65;64.94
65384;BME280;51986;52.788;41.368;2023-06-14T00:31:44;99232.19;;;12.72;65.34
65384;BME280;51986;52.788;41.368;2023-06-14T00:34:12;99232.94;;;12.73;65.02
65384;BME280;51986;52.788;41.368;2023-06-14T00:36:40;99231.38;;;12.75;64.71
65384;BME280;51986;52.788;41.368;2023-06-14T00:39:07;99225.81;;;12.70;65.31
65384;BME280;51986;52.788;41.368;2023-06-14T00:41:35;99228.94;;;12.65;64.86
65384;BME280;51986;52.788;41.368;2023-06-14T00:44:02;99219.03;;;12.69;64.87
65384;BME280;51986;52.788;41.368;2023-06-14T00:46:28;99227.72;;;12.69;65.39
65384;BME280;51986;52.788;41.368;2023-06-14T00:48:57;99201.53;;;12.55;65.34
65384;BME280;51986;52.788;41.368;2023-06-14T00:51:25;99200.91;;;12.47;66.05
65384;BME280;51986;52.788;41.368;2023-06-14T00:53:52;99221.59;;;12.72;65.29
65384;BME280;51986;52.788;41.368;2023-06-14T00:56:19;99224.25;;;12.72;65.23
65384;BME280;51986;52.788;41.368;2023-06-14T00:58:50;99223.91;;;12.70;65.29
65384;BME280;51986;52.788;41.368;2023-06-14T01:01:17;99211.63;;;12.80;65.02
65384;BME280;51986;52.788;41.368;2023-06-14T01:03:44;99215.69;;;12.84;64.81
65384;BME280;51986;52.788;41.368;2023-06-14T01:06:40;99212.38;;;12.80;64.82
65384;BME280;51986;52.788;41.368;2023-06-14T01:12:07;99214.31;;;12.96;64.31
65384;BME280;51986;52.788;41.368;2023-06-14T01:14:38;99203.22;;;12.85;64.38
65384;BME280;51986;52.788;41.368;2023-06-14T01:17:07;99221.41;;;12.83;65.08
65384;BME280;51986;52.788;41.368;2023-06-14T01:19:34;99199.34;;;12.70;65.20
65384;BME280;51986;52.788;41.368;2023-06-14T01:22:02;99213.59;;;12.76;65.08
65384;BME280;51986;52.788;41.368;2023-06-14T01:24:29;99218.69;;;12.67;65.99
65384;BME280;51986;52.788;41.368;2023-06-14T01:26:56;99189.56;;;12.67;65.69
65384;BME280;51986;52.788;41.368;2023-06-14T01:29:28;99187.41;;;12.61;65.98
65384;BME280;51986;52.788;41.368;2023-06-14T01:31:56;99202.47;;;12.65;65.70
65384;BME280;51986;52.788;41.368;2023-06-14T01:34:23;99200.69;;;12.58;66.58
65384;BME280;51986;52.788;41.368;2023-06-14T01:36:52;99209.69;;;12.64;65.72
65384;BME280;51986;52.788;41.368;2023-06-14T01:39:21;99193.84;;;12.60;66.05
65384;BME280;51986;52.788;41.368;2023-06-14T01:41:49;99189.50;;;12.70;65.76
65384;BME280;51986;52.788;41.368;2023-06-14T01:44:18;99192.09;;;12.54;65.98
65384;BME280;51986;52.788;41.368;2023-06-14T01:46:47;99193.06;;;12.64;66.13
65384;BME280;51986;52.788;41.368;2023-06-14T01:49:14;99206.56;;;12.69;65.71
65384;BME280;51986;52.788;41.368;2023-06-14T01:51:41;99190.31;;;12.67;65.86
65384;BME280;51986;52.788;41.368;2023-06-14T01:54:08;99187.59;;;12.71;65.48
65384;BME280;51986;52.788;41.368;2023-06-14T01:56:37;99184.16;;;12.74;65.35
65384;BME280;51986;52.788;41.368;2023-06-14T01:59:04;99180.81;;;12.70;65.76
65384;BME280;51986;52.788;41.368;2023-06-14T02:01:32;99185.78;;;12.68;65.92
65384;BME280;51986;52.788;41.368;2023-06-14T02:04:00;99204.97;;;12.72;65.61
65384;BME280;51986;52.788;41.368;2023-06-14T02:06:27;99194.75;;;12.74;65.51
65384;BME280;51986;52.788;41.368;2023-06-14T02:08:54;99178.59;;;12.68;65.87
65384;BME280;51986;52.788;41.368;2023-06-14T02:11:21;99177.03;;;12.71;65.46
65384;BME280;51986;52.788;41.368;2023-06-14T02:13:49;99177.22;;;12.80;65.88
65384;BME280;51986;52.788;41.368;2023-06-14T02:16:16;99173.28;;;12.88;64.93
65384;BME280;51986;52.788;41.368;2023-06-14T02:18:43;99217.88;;;13.09;64.89
65384;BME280;51986;52.788;41.368;2023-06-14T02:21:10;99187.28;;;13.25;63.85
65384;BME280;51986;52.788;41.368;2023-06-14T02:23:37;99190.22;;;13.30;63.63
65384;BME280;51986;52.788;41.368;2023-06-14T02:26:04;99194.84;;;13.26;63.71
65384;BME280;51986;52.788;41.368;2023-06-14T02:28:33;99180.94;;;13.38;63.23
65384;BME280;51986;52.788;41.368;2023-06-14T02:31:00;99187.22;;;13.28;63.70
65384;BME280;51986;52.788;41.368;2023-06-14T02:33:27;99191.19;;;13.36;63.85
65384;BME280;51986;52.788;41.368;2023-06-14T02:35:54;99181.59;;;13.43;63.64
65384;BME280;51986;52.788;41.368;2023-06-14T02:38:21;99178.44;;;13.48;63.25
65384;BME280;51986;52.788;41.368;2023-06-14T02:40:48;99168.78;;;13.74;62.19
65384;BME280;51986;52.788;41.368;2023-06-14T02:43:15;99208.44;;;13.94;61.83
65384;BME280;51986;52.788;41.368;2023-06-14T02:45:42;99162.91;;;14.28;60.42
65384;BME280;51986;52.788;41.368;2023-06-14T02:48:09;99180.75;;;14.40;60.30
65384;BME280;51986;52.788;41.368;2023-06-14T02:50:36;99224.75;;;14.83;58.82
65384;BME280;51986;52.788;41.368;2023-06-14T02:53:03;99191.38;;;14.82;58.30
65384;BME280;51986;52.788;41.368;2023-06-14T02:55:30;99172.94;;;15.04;58.29
65384;BME280;51986;52.788;41.368;2023-06-14T02:57:57;99204.56;;;14.85;58.18
65384;BME280;51986;52.788;41.368;2023-06-14T03:00:25;99172.03;;;14.69;59.12
65384;BME280;51986;52.788;41.368;2023-06-14T03:02:52;99169.63;;;14.45;59.78
65384;BME280;51986;52.788;41.368;2023-06-14T03:05:20;99181.75;;;14.46;59.48
65384;BME280;51986;52.788;41.368;2023-06-14T03:07:48;99178.25;;;14.49;59.95
65384;BME280;51986;52.788;41.368;2023-06-14T03:10:16;99166.66;;;14.43;59.94
65384;BME280;51986;52.788;41.368;2023-06-14T03:12:44;99171.75;;;14.37;59.85
65384;BME280;51986;52.788;41.368;2023-06-14T03:15:11;99180.59;;;14.18;60.55
65384;BME280;51986;52.788;41.368;2023-06-14T03:17:42;99163.75;;;14.08;60.96
65384;BME280;51986;52.788;41.368;2023-06-14T03:20:09;99171.22;;;13.97;61.32
65384;BME280;51986;52.788;41.368;2023-06-14T03:22:36;99172.22;;;13.87;61.77
65384;BME280;51986;52.788;41.368;2023-06-14T03:25:05;99141.69;;;14.11;61.09
65384;BME280;51986;52.788;41.368;2023-06-14T03:27:36;99134.22;;;14.23;60.79
65384;BME280;51986;52.788;41.368;2023-06-14T03:30:04;99166.59;;;14.18;60.98
65384;BME280;51986;52.788;41.368;2023-06-14T03:32:31;99171.03;;;14.21;61.14
65384;BME280;51986;52.788;41.368;2023-06-14T03:34:59;99126.44;;;14.15;60.39
65384;BME280;51986;52.788;41.368;2023-06-14T03:37:27;99146.09;;;14.18;60.93
65384;BME280;51986;52.788;41.368;2023-06-14T03:39:54;99162.31;;;14.36;60.21
65384;BME280;51986;52.788;41.368;2023-06-14T03:42:23;99166.97;;;14.45;60.08
65384;BME280;51986;52.788;41.368;2023-06-14T03:44:50;99154.94;;;14.28;60.36
65384;BME280;51986;52.788;41.368;2023-06-14T03:47:20;99163.19;;;14.46;60.14
65384;BME280;51986;52.788;41.368;2023-06-14T03:49:47;99161.09;;;14.66;59.31
65384;BME280;51986;52.788;41.368;2023-06-14T03:52:14;99169.63;;;14.87;58.82
65384;BME280;51986;52.788;41.368;2023-06-14T03:54:43;99170.84;;;15.24;57.80
65384;BME280;51986;52.788;41.368;2023-06-14T03:57:32;99152.03;;;15.79;56.24
65384;BME280;51986;52.788;41.368;2023-06-14T03:59:59;99154.13;;;15.97;55.24
65384;BME280;51986;52.788;41.368;2023-06-14T04:05:13;99166.84;;;15.80;56.20
65384;BME280;51986;52.788;41.368;2023-06-14T04:07:45;99146.88;;;15.97;55.06
65384;BME280;51986;52.788;41.368;2023-06-14T04:10:13;99161.66;;;15.98;55.51
65384;BME280;51986;52.788;41.368;2023-06-14T04:12:40;99160.06;;;16.57;54.13
65384;BME280;51986;52.788;41.368;2023-06-14T04:15:10;99158.13;;;16.14;55.17
65384;BME280;51986;52.788;41.368;2023-06-14T04:17:49;99161.63;;;16.24;54.88
65384;BME280;51986;52.788;41.368;2023-06-14T04:20:16;99130.91;;;15.97;55.57
65384;BME280;51986;52.788;41.368;2023-06-14T04:22:43;99165.44;;;16.23;54.85
65384;BME280;51986;52.788;41.368;2023-06-14T04:25:11;99145.72;;;16.20;54.64
65384;BME280;51986;52.788;41.368;2023-06-14T04:27:38;99148.38;;;16.33;55.24
65384;BME280;51986;52.788;41.368;2023-06-14T04:30:06;99148.72;;;16.44;54.98
65384;BME280;51986;52.788;41.368;2023-06-14T04:32:37;99160.63;;;16.52;53.81
65384;BME280;51986;52.788;41.368;2023-06-14T04:35:07;99158.19;;;16.67;53.91
65384;BME280;51986;52.788;41.368;2023-06-14T04:37:37;99168.44;;;16.47;54.75
65384;BME280;51986;52.788;41.368;2023-06-14T04:40:05;99150.72;;;16.31;55.16
65384;BME280;51986;52.788;41.368;2023-06-14T04:42:33;99160.63;;;16.52;54.44
65384;BME280;51986;52.788;41.368;2023-06-14T04:45:01;99170.63;;;16.26;54.94
65384;BME280;51986;52.788;41.368;2023-06-14T04:47:29;99134.75;;;16.31;55.53
65384;BME280;51986;52.788;41.368;2023-06-14T04:49:57;99153.81;;;16.29;55.40
65384;BME280;51986;52.788;41.368;2023-06-14T04:52:24;99158.84;;;16.14;55.70
65384;BME280;51986;52.788;41.368;2023-06-14T04:54:51;99132.47;;;16.07;55.67
65384;BME280;51986;52.788;41.368;2023-06-14T04:57:19;99148.72;;;15.87;56.01
65384;BME280;51986;52.788;41.368;2023-06-14T05:02:35;99142.84;;;15.92;56.09
65384;BME280;51986;52.788;41.368;2023-06-14T05:05:02;99172.09;;;16.05;55.68
65384;BME280;51986;52.788;41.368;2023-06-14T05:07:29;99156.94;;;16.15;55.39
65384;BME280;51986;52.788;41.368;2023-06-14T05:09:56;99149.94;;;16.08;55.75
65384;BME280;51986;52.788;41.368;2023-06-14T05:12:25;99144.19;;;16.10;55.55
65384;BME280;51986;52.788;41.368;2023-06-14T05:14:52;99159.34;;;16.22;55.54
65384;BME280;51986;52.788;41.368;2023-06-14T05:17:40;99155.00;;;16.15;55.77
65384;BME280;51986;52.788;41.368;2023-06-14T05:20:08;99139.94;;;16.34;55.14
65384;BME280;51986;52.788;41.368;2023-06-14T05:22:35;99161.41;;;16.62;54.96
65384;BME280;51986;52.788;41.368;2023-06-14T05:25:02;99157.69;;;16.59;54.91
65384;BME280;51986;52.788;41.368;2023-06-14T05:30:15;99153.88;;;16.38;55.58
65384;BME280;51986;52.788;41.368;2023-06-14T05:32:42;99160.06;;;16.57;55.57
65384;BME280;51986;52.788;41.368;2023-06-14T05:35:09;99171.75;;;16.60;55.75
65384;BME280;51986;52.788;41.368;2023-06-14T05:37:37;99166.41;;;16.82;55.44
65384;BME280;51986;52.788;41.368;2023-06-14T05:40:05;99133.94;;;16.74;55.30
65384;BME280;51986;52.788;41.368;2023-06-14T05:42:33;99163.94;;;16.96;54.87
65384;BME280;51986;52.788;41.368;2023-06-14T05:45:00;99156.56;;;17.01;54.93
65384;BME280;51986;52.788;41.368;2023-06-14T05:47:27;99145.00;;;17.04;54.75
65384;BME280;51986;52.788;41.368;2023-06-14T05:49:54;99154.16;;;17.25;54.52
65384;BME280;51986;52.788;41.368;2023-06-14T05:52:21;99133.13;;;17.27;54.64
65384;BME280;51986;52.788;41.368;2023-06-14T05:55:07;99156.13;;;17.33;54.36
65384;BME280;51986;52.788;41.368;2023-06-14T05:57:35;99123.22;;;17.27;53.78
65384;BME280;51986;52.788;41.368;2023-06-14T06:00:02;99124.88;;;17.61;53.43
65384;BME280;51986;52.788;41.368;2023-06-14T06:02:37;99162.56;;;17.63;53.12
65384;BME280;51986;52.788;41.368;2023-06-14T06:05:05;99176.75;;;17.51;53.84
65384;BME280;51986;52.788;41.368;2023-06-14T06:07:32;99130.22;;;17.43;52.73
65384;BME280;51986;52.788;41.368;2023-06-14T06:10:02;99172.94;;;17.98;52.75
65384;BME280;51986;52.788;41.368;2023-06-14T06:12:29;99139.00;;;17.98;52.17
65384;BME280;51986;52.788;41.368;2023-06-14T06:14:56;99153.25;;;18.05;52.64
65384;BME280;51986;52.788;41.368;2023-06-14T06:17:24;99133.09;;;18.13;52.55
65384;BME280;51986;52.788;41.368;2023-06-14T06:19:52;99145.69;;;18.12;52.69
65384;BME280;51986;52.788;41.368;2023-06-14T06:22:19;99163.19;;;18.22;52.30
65384;BME280;51986;52.788;41.368;2023-06-14T06:24:46;99140.94;;;18.35;51.82
65384;BME280;51986;52.788;41.368;2023-06-14T06:27:13;99155.91;;;18.14;52.13
65384;BME280;51986;52.788;41.368;2023-06-14T06:29:42;99137.53;;;18.25;52.17
65384;BME280;51986;52.788;41.368;2023-06-14T06:32:09;99129.63;;;18.49;52.33
65384;BME280;51986;52.788;41.368;2023-06-14T06:34:36;99139.88;;;18.32;52.34
65384;BME280;51986;52.788;41.368;2023-06-14T06:37:03;99137.06;;;18.36;52.82
65384;BME280;51986;52.788;41.368;2023-06-14T06:39:30;99154.06;;;18.66;51.69
65384;BME280;51986;52.788;41.368;2023-06-14T06:41:57;99137.81;;;18.88;51.74
65384;BME280;51986;52.788;41.368;2023-06-14T06:44:32;99129.53;;;19.19;50.97
65384;BME280;51986;52.788;41.368;2023-06-14T06:47:00;99091.16;;;18.56;50.77
65384;BME280;51986;52.788;41.368;2023-06-14T06:49:27;99121.63;;;19.01;51.13
65384;BME280;51986;52.788;41.368;2023-06-14T06:52:05;99110.28;;;18.63;52.00
65384;BME280;51986;52.788;41.368;2023-06-14T06:54:33;99123.78;;;19.11;51.84
65384;BME280;51986;52.788;41.368;2023-06-14T06:57:00;99126.19;;;19.00;52.68
65384;BME280;51986;52.788;41.368;2023-06-14T06:59:27;99093.19;;;19.12;52.47
65384;BME280;51986;52.788;41.368;2023-06-14T07:01:54;99122.59;;;19.12;52.47
65384;BME280;51986;52.788;41.368;2023-06-14T07:04:21;99110.75;;;18.95;52.98
65384;BME280;51986;52.788;41.368;2023-06-14T07:06:49;99108.38;;;18.64;53.55
65384;BME280;51986;52.788;41.368;2023-06-14T07:09:16;99116.38;;;18.64;53.94
65384;BME280;51986;52.788;41.368;2023-06-14T07:11:43;99130.91;;;19.05;52.78
65384;BME280;51986;52.788;41.368;2023-06-14T07:14:11;99103.63;;;18.59;53.06
65384;BME280;51986;52.788;41.368;2023-06-14T07:16:38;99112.84;;;18.58;53.53
65384;BME280;51986;52.788;41.368;2023-06-14T07:19:05;99123.72;;;18.27;54.42
65384;BME280;51986;52.788;41.368;2023-06-14T07:21:32;99117.38;;;18.66;53.50
65384;BME280;51986;52.788;41.368;2023-06-14T07:24:00;99106.44;;;18.64;53.38
65384;BME280;51986;52.788;41.368;2023-06-14T07:26:27;99112.38;;;18.59;53.98
65384;BME280;51986;52.788;41.368;2023-06-14T07:28:54;99101.34;;;18.24;54.55
65384;BME280;51986;52.788;41.368;2023-06-14T07:31:21;99097.16;;;18.32;54.87
65384;BME280;51986;52.788;41.368;2023-06-14T07:33:48;99071.09;;;17.99;55.42
65384;BME280;51986;52.788;41.368;2023-06-14T07:36:15;99108.25;;;18.49;54.83
65384;BME280;51986;52.788;41.368;2023-06-14T07:38:42;99081.97;;;18.57;54.36
65384;BME280;51986;52.788;41.368;2023-06-14T07:41:09;99084.44;;;18.69;54.36
65384;BME280;51986;52.788;41.368;2023-06-14T07:43:36;99096.53;;;18.89;53.50
65384;BME280;51986;52.788;41.368;2023-06-14T07:46:22;99092.78;;;18.62;53.83
65384;BME280;51986;52.788;41.368;2023-06-14T07:48:48;99102.13;;;19.00;54.28
65384;BME280;51986;52.788;41.368;2023-06-14T07:51:16;99107.78;;;18.93;53.32
65384;BME280;51986;52.788;41.368;2023-06-14T07:53:43;99088.84;;;18.82;53.94
65384;BME280;51986;52.788;41.368;2023-06-14T07:56:10;99089.09;;;18.93;53.92
65384;BME280;51986;52.788;41.368;2023-06-14T07:58:37;99090.47;;;18.79;54.65
65384;BME280;51986;52.788;41.368;2023-06-14T08:01:04;99099.03;;;19.02;53.81
65384;BME280;51986;52.788;41.368;2023-06-14T08:03:32;99087.44;;;18.95;54.17
65384;BME280;51986;52.788;41.368;2023-06-14T08:05:59;99091.91;;;18.98;54.20
65384;BME280;51986;52.788;41.368;2023-06-14T08:08:27;99110.63;;;19.22;54.04
65384;BME280;51986;52.788;41.368;2023-06-14T08:10:53;99080.84;;;19.39;53.48
65384;BME280;51986;52.788;41.368;2023-06-14T08:13:20;99099.88;;;19.32;53.77
65384;BME280;51986;52.788;41.368;2023-06-14T08:15:50;99084.25;;;19.39;53.83
65384;BME280;51986;52.788;41.368;2023-06-14T08:18:17;99101.03;;;19.16;54.80
65384;BME280;51986;52.788;41.368;2023-06-14T08:20:44;99085.09;;;18.97;54.43
65384;BME280;51986;52.788;41.368;2023-06-14T08:23:11;99069.13;;;19.12;54.65
65384;BME280;51986;52.788;41.368;2023-06-14T08:25:38;99084.53;;;19.17;54.69
65384;BME280;51986;52.788;41.368;2023-06-14T08:28:05;99088.56;;;19.37;54.49
65384;BME280;51986;52.788;41.368;2023-06-14T08:30:32;99085.69;;;19.25;54.78
65384;BME280;51986;52.788;41.368;2023-06-14T08:32:59;99073.09;;;19.41;54.08
65384;BME280;51986;52.788;41.368;2023-06-14T08:35:42;99059.91;;;19.13;54.59
65384;BME280;51986;52.788;41.368;2023-06-14T08:38:10;99063.97;;;18.99;54.78
65384;BME280;51986;52.788;41.368;2023-06-14T08:40:39;99071.69;;;19.07;55.25
65384;BME280;51986;52.788;41.368;2023-06-14T08:43:08;99074.41;;;18.97;55.33
65384;BME280;51986;52.788;41.368;2023-06-14T08:45:35;99097.09;;;18.93;55.47
65384;BME280;51986;52.788;41.368;2023-06-14T08:48:02;99077.81;;;18.89;55.43
65384;BME280;51986;52.788;41.368;2023-06-14T08:50:32;99065.19;;;18.89;55.40
65384;BME280;51986;52.788;41.368;2023-06-14T08:53:02;99095.06;;;18.88;55.52
65384;BME280;51986;52.788;41.368;2023-06-14T08:55:31;99076.09;;;19.10;55.93
65384;BME280;51986;52.788;41.368;2023-06-14T08:58:03;99097.56;;;18.91;55.50
65384;BME280;51986;52.788;41.368;2023-06-14T09:00:31;99087.81;;;19.12;55.56
65384;BME280;51986;52.788;41.368;2023-06-14T09:02:58;99104.09;;;19.23;54.93
65384;BME280;51986;52.788;41.368;2023-06-14T09:05:26;99109.22;;;19.36;55.19
65384;BME280;51986;52.788;41.368;2023-06-14T09:07:54;99077.47;;;19.05;55.63
65384;BME280;51986;52.788;41.368;2023-06-14T09:10:21;99068.22;;;19.15;55.42
65384;BME280;51986;52.788;41.368;2023-06-14T09:12:49;99074.47;;;19.12;55.51
65384;BME280;51986;52.788;41.368;2023-06-14T09:15:17;99057.47;;;19.01;55.22
65384;BME280;51986;52.788;41.368;2023-06-14T09:17:44;99076.78;;;19.19;55.54
65384;BME280;51986;52.788;41.368;2023-06-14T09:20:15;99089.03;;;19.11;55.66
65384;BME280;51986;52.788;41.368;2023-06-14T09:22:42;99073.56;;;19.15;55.10
65384;BME280;51986;52.788;41.368;2023-06-14T09:25:10;99068.94;;;19.16;55.60
65384;BME280;51986;52.788;41.368;2023-06-14T09:27:51;99063.75;;;19.36;54.77
65384;BME280;51986;52.788;41.368;2023-06-14T09:30:20;99087.13;;;19.50;54.38
65384;BME280;51986;52.788;41.368;2023-06-14T09:32:48;99071.72;;;19.21;54.83
65384;BME280;51986;52.788;41.368;2023-06-14T09:35:17;99091.19;;;19.22;55.41
65384;BME280;51986;52.788;41.368;2023-06-14T09:37:45;99091.94;;;19.61;54.29
65384;BME280;51986;52.788;41.368;2023-06-14T09:40:13;99081.22;;;19.46;54.20
65384;BME280;51986;52.788;41.368;2023-06-14T09:42:47;99089.53;;;19.48;54.33
65384;BME280;51986;52.788;41.368;2023-06-14T09:45:15;99099.25;;;19.37;54.79
65384;BME280;51986;52.788;41.368;2023-06-14T09:47:43;99091.97;;;19.13;54.85
65384;BME280;51986;52.788;41.368;2023-06-14T09:50:31;99089.41;;;19.19;55.19
65384;BME280;51986;52.788;41.368;2023-06-14T09:53:03;99082.53;;;19.03;55.13
65384;BME280;51986;52.788;41.368;2023-06-14T09:55:31;99106.03;;;19.23;55.17
65384;BME280;51986;52.788;41.368;2023-06-14T09:58:04;99077.19;;;19.27;54.91
65384;BME280;51986;52.788;41.368;2023-06-14T10:00:35;99086.47;;;19.17;55.43
65384;BME280;51986;52.788;41.368;2023-06-14T10:03:13;99109.38;;;19.09;56.01
65384;BME280;51986;52.788;41.368;2023-06-14T10:05:45;99104.97;;;19.06;55.99
65384;BME280;51986;52.788;41.368;2023-06-14T10:08:16;99113.31;;;18.89;56.28
65384;BME280;51986;52.788;41.368;2023-06-14T10:10:45;99100.34;;;19.06;55.98
65384;BME280;51986;52.788;41.368;2023-06-14T10:13:20;99125.19;;;18.97;55.69
65384;BME280;51986;52.788;41.368;2023-06-14T10:18:49;99083.28;;;18.94;56.13
65384;BME280;51986;52.788;41.368;2023-06-14T10:21:43;99097.88;;;18.84;56.44
65384;BME280;51986;52.788;41.368;2023-06-14T10:24:16;99101.91;;;18.80;56.77
65384;BME280;51986;52.788;41.368;2023-06-14T10:26:57;99099.72;;;18.69;56.83
65384;BME280;51986;52.788;41.368;2023-06-14T10:29:27;99092.78;;;18.62;57.28
65384;BME280;51986;52.788;41.368;2023-06-14T10:31:59;99078.72;;;18.53;57.92
65384;BME280;51986;52.788;41.368;2023-06-14T10:34:28;99063.56;;;18.59;57.44
65384;BME280;51986;52.788;41.368;2023-06-14T10:37:06;99080.28;;;18.68;57.32
65384;BME280;51986;52.788;41.368;2023-06-14T10:39:43;99076.41;;;18.69;57.18
65384;BME280;51986;52.788;41.368;2023-06-14T10:42:10;99085.75;;;18.74;57.51
65384;BME280;51986;52.788;41.368;2023-06-14T10:44:42;99072.84;;;18.72;57.47
65384;BME280;51986;52.788;41.368;2023-06-14T10:47:27;99054.81;;;18.58;57.76
65384;BME280;51986;52.788;41.368;2023-06-14T10:52:29;99074.44;;;18.79;57.94
65384;BME280;51986;52.788;41.368;2023-06-14T10:55:10;99072.72;;;18.67;58.44
65384;BME280;51986;52.788;41.368;2023-06-14T11:00:19;99055.44;;;18.53;59.02
65384;BME280;51986;52.788;41.368;2023-06-14T11:11:12;99050.13;;;18.44;59.29
65384;BME280;51986;52.788;41.368;2023-06-14T11:13:44;99042.91;;;18.26;60.06
65384;BME280;51986;52.788;41.368;2023-06-14T11:16:17;99069.25;;;18.33;59.94
65384;BME280;51986;52.788;41.368;2023-06-14T11:18:46;99050.75;;;18.30;60.17
65384;BME280;51986;52.788;41.368;2023-06-14T11:21:17;99049.84;;;18.33;59.98
65384;BME280;51986;52.788;41.368;2023-06-14T11:23:51;99034.44;;;18.18;60.62
65384;BME280;51986;52.788;41.368;2023-06-14T11:26:30;99062.66;;;18.01;60.95
65384;BME280;51986;52.788;41.368;2023-06-14T11:28:59;99049.31;;;18.19;60.40
65384;BME280;51986;52.788;41.368;2023-06-14T11:31:27;99063.53;;;18.16;61.06
65384;BME280;51986;52.788;41.368;2023-06-14T11:33:56;99068.84;;;18.35;60.29
65384;BME280;51986;52.788;41.368;2023-06-14T11:36:31;99059.28;;;18.43;60.04
65384;BME280;51986;52.788;41.368;2023-06-14T11:39:02;99066.34;;;18.22;60.26
65384;BME280;51986;52.788;41.368;2023-06-14T11:41:43;99062.56;;;18.38;59.92
65384;BME280;51986;52.788;41.368;2023-06-14T11:44:11;99074.19;;;18.35;60.09
65384;BME280;51986;52.788;41.368;2023-06-14T11:46:39;99082.91;;;18.35;60.42
65384;BME280;51986;52.788;41.368;2023-06-14T11:49:07;99092.56;;;18.33;60.49
65384;BME280;51986;52.788;41.368;2023-06-14T11:51:34;99095.38;;;18.38;60.47
65384;BME280;51986;52.788;41.368;2023-06-14T11:54:06;99081.88;;;18.33;60.58
65384;BME280;51986;52.788;41.368;2023-06-14T11:56:33;99096.13;;;18.39;60.45
65384;BME280;51986;52.788;41.368;2023-06-14T11:59:02;99060.88;;;18.16;60.42
65384;BME280;51986;52.788;41.368;2023-06-14T12:01:30;99093.44;;;18.48;60.16
65384;BME280;51986;52.788;41.368;2023-06-14T12:03:59;99092.13;;;18.34;61.22
65384;BME280;51986;52.788;41.368;2023-06-14T12:06:28;99094.31;;;18.45;60.86
65384;BME280;51986;52.788;41.368;2023-06-14T12:08:56;99093.72;;;18.41;61.04
65384;BME280;51986;52.788;41.368;2023-06-14T12:11:23;99075.16;;;18.46;60.48
65384;BME280;51986;52.788;41.368;2023-06-14T12:13:51;99103.75;;;18.64;60.45
65384;BME280;51986;52.788;41.368;2023-06-14T12:16:17;99063.75;;;18.46;60.42
65384;BME280;51986;52.788;41.368;2023-06-14T12:18:45;99084.97;;;18.49;60.65
65384;BME280;51986;52.788;41.368;2023-06-14T12:21:12;99088.66;;;18.43;61.36
65384;BME280;51986;52.788;41.368;2023-06-14T12:23:49;99080.56;;;18.28;61.19
65384;BME280;51986;52.788;41.368;2023-06-14T12:26:18;99067.91;;;18.47;60.96
65384;BME280;51986;52.788;41.368;2023-06-14T12:28:48;99072.06;;;18.48;61.23
65384;BME280;51986;52.788;41.368;2023-06-14T12:31:16;99096.97;;;18.54;60.94
65384;BME280;51986;52.788;41.368;2023-06-14T12:33:43;99069.06;;;18.55;60.36
65384;BME280;51986;52.788;41.368;2023-06-14T12:36:10;99090.13;;;18.62;60.47
65384;BME280;51986;52.788;41.368;2023-06-14T12:38:55;99080.59;;;18.61;60.80
65384;BME280;51986;52.788;41.368;2023-06-14T12:41:23;99091.56;;;18.72;60.03
65384;BME280;51986;52.788;41.368;2023-06-14T12:43:51;99061.63;;;18.59;60.23
65384;BME280;51986;52.788;41.368;2023-06-14T12:46:18;99080.28;;;18.68;59.80
65384;BME280;51986;52.788;41.368;2023-06-14T12:48:45;99087.34;;;18.81;59.70
65384;BME280;51986;52.788;41.368;2023-06-14T12:51:12;99085.41;;;18.81;59.84
65384;BME280;51986;52.788;41.368;2023-06-14T12:53:39;99096.25;;;18.87;59.61
65384;BME280;51986;52.788;41.368;2023-06-14T12:56:07;99090.19;;;18.44;60.99
65384;BME280;51986;52.788;41.368;2023-06-14T12:58:34;99080.28;;;18.68;60.32
65384;BME280;51986;52.788;41.368;2023-06-14T13:01:01;99094.09;;;18.67;60.25
65384;BME280;51986;52.788;41.368;2023-06-14T13:06:14;99074.50;;;18.70;59.63
65384;BME280;51986;52.788;41.368;2023-06-14T13:08:42;99071.69;;;18.64;59.75
65384;BME280;51986;52.788;41.368;2023-06-14T13:11:09;99055.94;;;18.66;59.68
65384;BME280;51986;52.788;41.368;2023-06-14T13:13:36;99084.41;;;18.79;59.28
65384;BME280;51986;52.788;41.368;2023-06-14T13:16:04;99049.38;;;18.43;60.09
65384;BME280;51986;52.788;41.368;2023-06-14T13:18:31;99054.06;;;18.58;59.39
65384;BME280;51986;52.788;41.368;2023-06-14T13:20:58;99067.13;;;18.56;59.42
65384;BME280;51986;52.788;41.368;2023-06-14T13:23:25;99061.00;;;18.64;59.45
65384;BME280;51986;52.788;41.368;2023-06-14T13:25:52;99064.47;;;18.46;59.41
65384;BME280;51986;52.788;41.368;2023-06-14T13:28:19;99067.97;;;18.29;59.94
65384;BME280;51986;52.788;41.368;2023-06-14T13:30:47;99044.19;;;18.40;60.20